Time;durP1;ratioP1;P1;durP2;ratioP2;P2;SDS_P1;SDS_P2;PMS_P1;PMS_P2;Temp;Humidity;BMP_temperature;BMP_pressure;BME280_temperature;BME280_humidity;BME280_pressure;Samples;Min_cycle;Max_cycle;Signal;HPM_P1;HPM_P2
2021/01/10 00:00:17;;;;;;;21.35;14.30;;;5.70;99.90;;;;;;6130084;23;20138;-77
2021/01/10 00:02:54;;;;;;;26.65;16.33;;;5.70;99.90;;;;;;6031483;23;20163;-75
2021/01/10 00:05:38;;;;;;;22.25;14.95;;;5.70;99.90;;;;;;6154823;23;20735;-77
2021/01/10 00:08:10;;;;;;;23.33;16.20;;;5.70;99.90;;;;;;6127331;23;20157;-75
2021/01/10 00:10:36;;;;;;;25.17;15.98;;;5.60;99.90;;;;;;6031248;23;20193;-77
2021/01/10 00:13:10;;;;;;;21.27;15.55;;;5.70;99.90;;;;;;6130011;23;20247;-77
2021/01/10 00:15:48;;;;;;;23.52;16.23;;;5.60;99.90;;;;;;6031606;23;20610;-77
2021/01/10 00:18:17;;;;;;;17.52;13.52;;;5.70;99.90;;;;;;6129731;23;20136;-78
2021/01/10 00:20:47;;;;;;;20.35;15.15;;;5.70;99.90;;;;;;6125515;23;20180;-77
2021/01/10 00:23:21;;;;;;;20.00;15.07;;;5.70;99.90;;;;;;6031274;23;20153;-77
2021/01/10 00:26:01;;;;;;;21.80;15.10;;;5.60;99.90;;;;;;6104396;23;21110;-77
2021/01/10 00:28:35;;;;;;;17.30;12.38;;;5.60;99.90;;;;;;6029459;23;20157;-77
2021/01/10 00:31:04;;;;;;;20.83;15.10;;;5.60;99.90;;;;;;6032240;23;20264;-77
2021/01/10 00:33:37;;;;;;;18.48;13.85;;;5.60;99.90;;;;;;6034617;23;20177;-77
2021/01/10 00:36:04;;;;;;;21.00;14.30;;;5.50;99.90;;;;;;6032467;23;20164;-77
2021/01/10 00:38:39;;;;;;;21.23;13.45;;;5.50;99.90;;;;;;6032127;23;20137;-77
2021/01/10 00:41:07;;;;;;;18.48;15.20;;;5.50;99.90;;;;;;6032462;23;20248;-77
2021/01/10 00:43:36;;;;;;;21.60;15.02;;;5.50;99.90;;;;;;6032543;23;20545;-77
2021/01/10 00:46:15;;;;;;;22.00;14.32;;;5.50;99.90;;;;;;6032716;23;20185;-77
2021/01/10 00:48:41;;;;;;;20.20;15.57;;;5.40;99.90;;;;;;6031985;23;20157;-77
2021/01/10 00:51:14;;;;;;;22.60;15.75;;;5.40;99.90;;;;;;6030304;23;20185;-77
2021/01/10 00:53:42;;;;;;;20.63;13.77;;;5.40;99.90;;;;;;6031061;23;20149;-77
2021/01/10 00:56:09;;;;;;;21.70;15.47;;;5.40;99.90;;;;;;6032615;23;20188;-78
2021/01/10 00:58:35;;;;;;;21.10;15.90;;;5.40;99.90;;;;;;6032177;23;21125;-77
2021/01/10 01:01:02;;;;;;;15.52;12.52;;;5.40;99.90;;;;;;6030411;23;20181;-77
2021/01/10 01:03:29;;;;;;;22.48;15.98;;;5.40;99.90;;;;;;6030642;23;20606;-77
2021/01/10 01:05:55;;;;;;;21.17;15.75;;;5.40;99.90;;;;;;6032126;23;20152;-78
2021/01/10 01:08:21;;;;;;;20.40;16.10;;;5.40;99.90;;;;;;6030357;23;20153;-77
2021/01/10 01:10:50;;;;;;;18.33;16.30;;;5.40;99.90;;;;;;6007597;23;20636;-77
2021/01/10 01:13:16;;;;;;;20.50;14.93;;;5.50;99.90;;;;;;6032634;23;20504;-77
2021/01/10 01:15:42;;;;;;;23.02;16.20;;;5.50;99.90;;;;;;6032673;23;20149;-77
2021/01/10 01:18:09;;;;;;;22.57;15.20;;;5.50;99.90;;;;;;6031994;23;20192;-77
2021/01/10 01:20:35;;;;;;;23.33;16.48;;;5.50;99.90;;;;;;6030422;23;20532;-77
2021/01/10 01:23:02;;;;;;;20.83;15.65;;;5.50;99.90;;;;;;6032601;23;20199;-77
2021/01/10 01:25:29;;;;;;;17.83;13.73;;;5.50;99.90;;;;;;6033371;23;20157;-77
2021/01/10 01:27:55;;;;;;;18.90;14.75;;;5.50;99.90;;;;;;6156562;23;20158;-77
2021/01/10 01:30:21;;;;;;;22.47;13.87;;;5.50;99.90;;;;;;6182697;23;20186;-77
2021/01/10 01:32:47;;;;;;;20.15;13.90;;;5.60;99.90;;;;;;6183089;23;20595;-77
2021/01/10 01:35:13;;;;;;;17.20;13.40;;;5.60;99.90;;;;;;6156550;23;20596;-77
2021/01/10 01:37:41;;;;;;;19.90;15.13;;;5.60;99.90;;;;;;6156003;23;20948;-78
2021/01/10 01:40:08;;;;;;;14.02;11.30;;;5.50;99.90;;;;;;6156371;23;20152;-77
2021/01/10 01:42:34;;;;;;;19.50;13.15;;;5.50;99.90;;;;;;6182154;23;20661;-77
2021/01/10 01:45:03;;;;;;;16.75;13.30;;;5.50;99.90;;;;;;6184158;23;20153;-77
2021/01/10 01:47:29;;;;;;;15.32;11.80;;;5.50;99.90;;;;;;6161177;23;20307;-77
2021/01/10 01:49:55;;;;;;;15.30;10.60;;;5.50;99.90;;;;;;6182602;23;20173;-77
2021/01/10 01:52:21;;;;;;;14.98;11.50;;;5.40;99.90;;;;;;6156085;23;20169;-77
2021/01/10 01:54:48;;;;;;;14.07;10.63;;;5.40;99.90;;;;;;6182806;23;20146;-77
2021/01/10 01:57:14;;;;;;;15.65;11.20;;;5.40;99.90;;;;;;6182270;23;20222;-77
2021/01/10 01:59:40;;;;;;;16.30;11.80;;;5.40;99.90;;;;;;6182818;23;20173;-77
2021/01/10 02:02:09;;;;;;;12.20;10.03;;;5.40;99.90;;;;;;6180430;23;20561;-77
2021/01/10 02:04:48;;;;;;;13.77;11.02;;;5.40;99.90;;;;;;6182781;23;20521;-77
2021/01/10 02:07:40;;;;;;;19.13;11.55;;;5.30;99.90;;;;;;6182055;23;20138;-77
2021/01/10 02:10:09;;;;;;;15.57;11.30;;;5.30;99.90;;;;;;6182376;23;20245;-77
2021/01/10 02:12:39;;;;;;;18.48;12.38;;;5.30;99.90;;;;;;6182421;23;20162;-77
2021/01/10 02:15:12;;;;;;;15.23;11.05;;;5.30;99.90;;;;;;6182361;23;20146;-77
2021/01/10 02:17:41;;;;;;;16.88;11.48;;;5.30;99.90;;;;;;6181600;23;20521;-77
2021/01/10 02:20:10;;;;;;;16.42;12.55;;;5.30;99.90;;;;;;6182109;23;20160;-77
2021/01/10 02:22:43;;;;;;;16.48;11.93;;;5.30;99.90;;;;;;6182867;23;20169;-77
2021/01/10 02:25:11;;;;;;;14.40;11.35;;;5.30;99.90;;;;;;6184615;23;20160;-77
2021/01/10 02:27:37;;;;;;;15.77;11.48;;;5.30;99.90;;;;;;6181875;23;20161;-77
2021/01/10 02:30:04;;;;;;;17.92;12.43;;;5.30;99.90;;;;;;6182114;23;20185;-77
2021/01/10 02:32:32;;;;;;;17.48;12.65;;;5.30;99.90;;;;;;6181821;23;20615;-78
2021/01/10 02:35:00;;;;;;;20.65;13.00;;;5.30;99.90;;;;;;6182493;23;20169;-78
2021/01/10 02:37:41;;;;;;;14.50;10.48;;;5.30;99.90;;;;;;6180203;23;20154;-77
2021/01/10 02:40:11;;;;;;;17.75;12.98;;;5.30;99.90;;;;;;6182115;23;20138;-78
2021/01/10 02:43:01;;;;;;;21.02;14.88;;;5.30;99.90;;;;;;6182397;23;20700;-77
2021/01/10 02:45:28;;;;;;;17.55;13.40;;;5.30;99.90;;;;;;6182468;23;20142;-77
2021/01/10 02:47:57;;;;;;;21.67;11.77;;;5.30;99.90;;;;;;6181750;23;20156;-75
2021/01/10 02:50:23;;;;;;;18.45;12.60;;;5.30;99.90;;;;;;6181489;23;20178;-77
2021/01/10 02:52:50;;;;;;;16.40;13.00;;;5.30;99.90;;;;;;6130983;23;20146;-77
2021/01/10 02:55:16;;;;;;;16.70;12.13;;;5.40;99.90;;;;;;6182298;23;20588;-77
2021/01/10 02:57:49;;;;;;;17.75;11.80;;;5.30;99.90;;;;;;6181633;23;20153;-77
2021/01/10 03:00:17;;;;;;;20.20;13.43;;;5.40;99.90;;;;;;6186604;23;20141;-77
2021/01/10 03:02:45;;;;;;;16.45;12.68;;;5.40;99.90;;;;;;6156096;23;20256;-77
2021/01/10 03:05:12;;;;;;;20.65;14.02;;;5.40;99.90;;;;;;6182330;23;20149;-77
2021/01/10 03:07:41;;;;;;;17.83;13.65;;;5.40;99.90;;;;;;6181519;23;20212;-77
2021/01/10 03:10:10;;;;;;;17.33;11.60;;;5.40;99.90;;;;;;6181869;23;20506;-77
2021/01/10 03:12:39;;;;;;;18.58;14.52;;;5.40;99.90;;;;;;6182147;23;20169;-77
2021/01/10 03:15:07;;;;;;;16.13;12.85;;;5.40;99.90;;;;;;6181995;23;20157;-77
2021/01/10 03:17:45;;;;;;;19.00;14.05;;;5.40;99.90;;;;;;6181412;23;20146;-77
2021/01/10 03:20:14;;;;;;;18.27;12.80;;;5.40;99.90;;;;;;6155275;23;20204;-77
2021/01/10 03:22:40;;;;;;;19.60;13.98;;;5.40;99.90;;;;;;6155493;23;20244;-77
2021/01/10 03:25:08;;;;;;;17.45;13.40;;;5.40;99.90;;;;;;6155727;23;20161;-77
2021/01/10 03:27:35;;;;;;;22.20;15.60;;;5.40;99.90;;;;;;6181336;23;20158;-77
2021/01/10 03:30:03;;;;;;;19.45;13.93;;;5.50;99.90;;;;;;6179961;23;20181;-77
2021/01/10 03:32:29;;;;;;;22.17;16.00;;;5.50;99.90;;;;;;6155367;23;20522;-77
2021/01/10 03:34:55;;;;;;;24.13;15.30;;;5.50;99.90;;;;;;6181878;23;20195;-77
2021/01/10 03:37:21;;;;;;;24.10;15.27;;;5.50;99.90;;;;;;6182156;23;20224;-77
2021/01/10 03:39:47;;;;;;;22.50;15.97;;;5.50;99.90;;;;;;6180279;23;20560;-77
2021/01/10 03:42:13;;;;;;;27.33;15.40;;;5.50;99.90;;;;;;6181454;23;20568;-77
2021/01/10 03:44:39;;;;;;;25.63;16.63;;;5.50;99.90;;;;;;6130644;23;20480;-77
2021/01/10 03:47:05;;;;;;;24.45;15.55;;;5.50;99.90;;;;;;6181735;23;20537;-77
2021/01/10 03:49:31;;;;;;;25.80;17.27;;;5.50;99.90;;;;;;6181096;23;20203;-77
2021/01/10 03:51:57;;;;;;;22.60;16.88;;;5.50;99.90;;;;;;6181408;23;20564;-78
2021/01/10 03:54:23;;;;;;;19.50;14.60;;;5.50;99.90;;;;;;6181793;23;20152;-78
2021/01/10 03:56:49;;;;;;;22.57;15.23;;;5.50;99.90;;;;;;6181694;23;21250;-77
2021/01/10 03:59:15;;;;;;;17.90;13.07;;;5.50;99.90;;;;;;6180980;23;20146;-77
2021/01/10 04:01:41;;;;;;;21.60;14.88;;;5.50;99.90;;;;;;6181409;23;20595;-77
2021/01/10 04:04:06;;;;;;;18.85;13.60;;;5.60;99.90;;;;;;6182058;23;20150;-77
2021/01/10 04:06:32;;;;;;;19.73;13.43;;;5.60;99.90;;;;;;6182314;23;20156;-77
2021/01/10 04:08:59;;;;;;;16.30;12.20;;;5.50;99.90;;;;;;6182900;23;20157;-77
2021/01/10 04:11:24;;;;;;;21.65;14.98;;;5.50;99.90;;;;;;6157318;23;20607;-77
2021/01/10 04:13:51;;;;;;;22.77;14.05;;;5.50;99.90;;;;;;6182146;23;20580;-77
2021/01/10 04:16:17;;;;;;;22.10;14.63;;;5.50;99.90;;;;;;6188816;23;20219;-77
2021/01/10 04:18:44;;;;;;;21.75;14.80;;;5.50;99.90;;;;;;6182852;23;20536;-77
2021/01/10 04:21:10;;;;;;;27.30;17.25;;;5.50;99.90;;;;;;6156974;23;20236;-77
2021/01/10 04:23:36;;;;;;;24.53;15.53;;;5.50;99.90;;;;;;6182110;23;20629;-77
2021/01/10 04:26:03;;;;;;;22.67;15.03;;;5.50;99.90;;;;;;6123310;23;20244;-77
2021/01/10 04:28:28;;;;;;;19.25;13.52;;;5.50;99.90;;;;;;6031935;23;20612;-77
2021/01/10 04:30:55;;;;;;;19.70;15.37;;;5.50;99.90;;;;;;6030747;23;20213;-77
2021/01/10 04:33:22;;;;;;;21.88;15.18;;;5.50;99.90;;;;;;6032868;23;20146;-76
2021/01/10 04:35:48;;;;;;;19.98;13.82;;;5.50;99.90;;;;;;6032722;23;20220;-77
2021/01/10 04:38:14;;;;;;;18.58;14.70;;;5.50;99.90;;;;;;6032134;23;20165;-77
2021/01/10 04:40:40;;;;;;;20.00;14.93;;;5.50;99.90;;;;;;6032417;23;20666;-78
2021/01/10 04:43:06;;;;;;;21.67;12.68;;;5.50;99.90;;;;;;6032902;23;21071;-77
2021/01/10 04:45:32;;;;;;;22.47;15.10;;;5.50;99.90;;;;;;6032798;23;20160;-77
2021/01/10 04:47:59;;;;;;;20.90;14.90;;;5.50;99.90;;;;;;6032086;23;20891;-77
2021/01/10 04:50:26;;;;;;;17.95;13.15;;;5.50;99.90;;;;;;6032188;23;20563;-77
2021/01/10 04:52:58;;;;;;;19.77;12.60;;;5.50;99.90;;;;;;6036752;23;20485;-77
2021/01/10 04:55:24;;;;;;;16.15;12.48;;;5.50;99.90;;;;;;6031303;23;20216;-77
2021/01/10 04:58:01;;;;;;;16.80;12.07;;;5.40;99.90;;;;;;6032097;23;20149;-77
2021/01/10 05:00:30;;;;;;;16.13;12.90;;;5.50;99.90;;;;;;6030999;23;20149;-77
2021/01/10 05:03:03;;;;;;;17.58;13.48;;;5.50;99.90;;;;;;6055396;23;20168;-77
2021/01/10 05:05:33;;;;;;;14.25;10.85;;;5.40;99.90;;;;;;6032085;23;20685;-77
2021/01/10 05:07:59;;;;;;;16.50;11.60;;;5.40;99.90;;;;;;6032837;23;20149;-76
2021/01/10 05:10:25;;;;;;;19.25;14.15;;;5.40;99.90;;;;;;6033186;23;20224;-77
2021/01/10 05:12:51;;;;;;;18.73;12.73;;;5.40;99.90;;;;;;6031500;23;20145;-77
2021/01/10 05:15:16;;;;;;;14.70;11.70;;;5.40;99.90;;;;;;6032455;23;20522;-77
2021/01/10 05:17:53;;;;;;;19.80;12.70;;;5.40;99.90;;;;;;6030060;23;20154;-77
2021/01/10 05:20:20;;;;;;;18.40;13.60;;;5.40;99.90;;;;;;6032053;23;20159;-78
2021/01/10 05:22:49;;;;;;;18.10;13.80;;;5.30;99.90;;;;;;6032492;23;20180;-77
2021/01/10 05:25:15;;;;;;;18.15;14.27;;;5.30;99.90;;;;;;6030824;23;20717;-78
2021/01/10 05:27:43;;;;;;;16.33;12.48;;;5.30;99.90;;;;;;6171208;23;20756;-77
2021/01/10 05:30:10;;;;;;;16.77;12.98;;;5.30;99.90;;;;;;6184809;23;20192;-77
2021/01/10 05:32:35;;;;;;;16.17;12.43;;;5.30;99.90;;;;;;6182878;23;20161;-77
2021/01/10 05:35:01;;;;;;;15.40;11.53;;;5.20;99.90;;;;;;6181675;23;20153;-77
2021/01/10 05:37:29;;;;;;;15.85;10.70;;;5.20;99.90;;;;;;6182377;23;20146;-77
2021/01/10 05:39:55;;;;;;;16.70;13.68;;;5.20;99.90;;;;;;6182731;23;20146;-77
2021/01/10 05:42:29;;;;;;;16.93;12.77;;;5.20;99.90;;;;;;6182936;23;20165;-77
2021/01/10 05:44:55;;;;;;;16.77;12.77;;;5.10;99.90;;;;;;6183152;23;20857;-77
2021/01/10 05:47:21;;;;;;;19.83;12.98;;;5.10;99.90;;;;;;6182268;23;20190;-77
2021/01/10 05:49:53;;;;;;;17.63;14.25;;;5.10;99.90;;;;;;6156190;23;20915;-77
2021/01/10 05:52:21;;;;;;;16.48;12.05;;;5.10;99.90;;;;;;6156365;23;20169;-77
2021/01/10 05:54:49;;;;;;;17.10;11.85;;;5.00;99.90;;;;;;6182620;23;20603;-78
2021/01/10 05:57:28;;;;;;;15.55;12.55;;;5.00;99.90;;;;;;6182371;23;20264;-77
2021/01/10 05:59:55;;;;;;;18.00;12.40;;;5.00;99.90;;;;;;6156242;23;20145;-77
2021/01/10 06:02:35;;;;;;;17.00;12.43;;;5.00;99.90;;;;;;6182394;23;20170;-77
2021/01/10 06:05:27;;;;;;;20.42;13.85;;;4.90;99.90;;;;;;6182885;23;20141;-77
2021/01/10 06:07:52;;;;;;;14.25;10.20;;;4.90;99.90;;;;;;6180489;23;20488;-77
2021/01/10 06:10:27;;;;;;;17.67;12.53;;;4.80;99.90;;;;;;6182097;23;20169;-77
2021/01/10 06:13:05;;;;;;;16.13;12.05;;;4.80;99.90;;;;;;6182754;23;20520;-77
2021/01/10 06:15:33;;;;;;;14.20;11.20;;;4.80;99.90;;;;;;6156418;23;20512;-76
2021/01/10 06:18:03;;;;;;;18.15;12.82;;;4.70;99.90;;;;;;6182169;23;20176;-76
2021/01/10 06:20:31;;;;;;;20.42;12.38;;;4.70;99.90;;;;;;6182222;23;20149;-77
2021/01/10 06:23:01;;;;;;;21.00;13.25;;;4.70;99.90;;;;;;6156369;23;20156;-77
2021/01/10 06:25:29;;;;;;;16.55;12.40;;;4.60;99.90;;;;;;6182578;23;20276;-77
2021/01/10 06:28:10;;;;;;;17.38;13.18;;;4.60;99.90;;;;;;6155444;23;20156;-77
2021/01/10 06:30:40;;;;;;;15.32;12.60;;;4.60;99.90;;;;;;6182245;23;20715;-77
2021/01/10 06:33:16;;;;;;;19.00;14.18;;;4.70;99.90;;;;;;6182784;23;20138;-76
2021/01/10 06:35:43;;;;;;;17.73;13.73;;;4.60;99.90;;;;;;6182613;23;20130;-77
2021/01/10 06:38:11;;;;;;;17.58;14.02;;;4.70;99.90;;;;;;6181238;23;20146;-76
2021/01/10 06:40:39;;;;;;;18.80;13.60;;;4.70;99.90;;;;;;6181970;23;20547;-77
2021/01/10 06:43:07;;;;;;;19.17;14.10;;;4.70;99.90;;;;;;6185169;23;20145;-76
2021/01/10 06:45:41;;;;;;;19.02;14.48;;;4.70;99.90;;;;;;6183475;23;20150;-77
2021/01/10 06:48:08;;;;;;;18.58;11.73;;;4.80;99.90;;;;;;6155221;23;20328;-77
2021/01/10 06:50:35;;;;;;;19.77;13.27;;;4.80;99.90;;;;;;6182006;23;20166;-76
2021/01/10 06:53:13;;;;;;;14.25;12.43;;;4.80;99.90;;;;;;6156115;23;20476;-76
2021/01/10 06:55:39;;;;;;;17.48;12.73;;;4.80;99.90;;;;;;6182258;23;20157;-76
2021/01/10 06:58:09;;;;;;;17.25;12.90;;;4.80;99.90;;;;;;6181442;23;20146;-76
2021/01/10 07:00:58;;;;;;;17.58;13.48;;;4.90;99.90;;;;;;6181847;23;20491;-76
2021/01/10 07:03:25;;;;;;;18.77;13.18;;;4.90;99.90;;;;;;6182184;23;20500;-76
2021/01/10 07:06:01;;;;;;;19.65;13.88;;;4.90;99.90;;;;;;6131389;23;20152;-76
2021/01/10 07:08:35;;;;;;;16.90;12.43;;;4.90;99.90;;;;;;6130622;23;20161;-76
2021/01/10 07:11:23;;;;;;;17.77;12.40;;;4.90;99.90;;;;;;6181777;23;20177;-76
2021/01/10 07:14:01;;;;;;;16.77;12.10;;;4.90;99.90;;;;;;6155815;23;20150;-76
2021/01/10 07:16:28;;;;;;;14.88;12.50;;;5.00;99.90;;;;;;6155847;23;20157;-76
2021/01/10 07:18:59;;;;;;;16.20;12.52;;;5.00;99.90;;;;;;6179717;23;20157;-76
2021/01/10 07:21:44;;;;;;;16.52;11.75;;;5.00;99.90;;;;;;6182150;23;20166;-76
2021/01/10 07:24:16;;;;;;;17.30;12.93;;;5.00;99.90;;;;;;6155851;23;20134;-81
2021/01/10 07:26:46;;;;;;;18.13;13.13;;;5.00;99.90;;;;;;6182559;23;20539;-81
2021/01/10 07:29:33;;;;;;;17.38;11.75;;;5.10;99.90;;;;;;6181913;23;20138;-80
2021/01/10 07:31:59;;;;;;;20.88;13.38;;;5.10;99.90;;;;;;6182128;23;20493;-79
2021/01/10 07:34:26;;;;;;;19.73;13.35;;;5.10;99.90;;;;;;6182431;23;20141;-79
2021/01/10 07:36:55;;;;;;;15.60;12.25;;;5.10;99.90;;;;;;6189284;23;20137;-78
2021/01/10 07:39:23;;;;;;;17.73;13.43;;;5.20;99.90;;;;;;6181477;23;20141;-79
2021/01/10 07:41:50;;;;;;;21.02;13.30;;;5.20;99.90;;;;;;6182025;23;20196;-79
2021/01/10 07:44:17;;;;;;;19.95;13.68;;;5.20;99.90;;;;;;6182652;23;20146;-79
2021/01/10 07:46:59;;;;;;;15.60;12.65;;;5.30;99.90;;;;;;6156154;23;20157;-80
2021/01/10 07:49:31;;;;;;;18.55;13.23;;;5.30;99.90;;;;;;6181686;23;20896;-80
2021/01/10 07:51:57;;;;;;;21.23;13.07;;;5.40;99.90;;;;;;6106458;23;20224;-79
2021/01/10 07:54:52;;;;;;;15.55;13.18;;;5.40;99.90;;;;;;6182042;23;20455;-79
2021/01/10 07:57:22;;;;;;;16.83;12.65;;;5.40;99.90;;;;;;6183082;23;20429;-80
2021/01/10 08:00:07;;;;;;;16.58;13.07;;;5.50;99.90;;;;;;6181168;23;20222;-79
2021/01/10 08:02:47;;;;;;;18.80;15.70;;;5.60;99.90;;;;;;6182277;23;20227;-79
2021/01/10 08:05:36;;;;;;;16.85;13.10;;;5.60;99.90;;;;;;6181625;23;20485;-80
2021/01/10 08:08:05;;;;;;;17.35;12.77;;;5.70;99.90;;;;;;6165649;23;20542;-79
2021/01/10 08:10:55;;;;;;;19.45;11.90;;;5.80;99.90;;;;;;6181912;23;20240;-79
2021/01/10 08:13:30;;;;;;;20.08;15.13;;;5.80;99.90;;;;;;6181897;23;20158;-79
2021/01/10 08:16:01;;;;;;;19.25;13.68;;;5.80;99.90;;;;;;6156152;23;20141;-79
2021/01/10 08:18:33;;;;;;;17.83;13.85;;;5.90;99.90;;;;;;6181244;23;20768;-78
2021/01/10 08:21:00;;;;;;;16.73;11.85;;;5.90;99.90;;;;;;6154923;23;20173;-79
2021/01/10 08:23:26;;;;;;;17.33;12.63;;;6.00;99.90;;;;;;6181924;23;20282;-78
2021/01/10 08:26:21;;;;;;;17.40;13.10;;;6.00;99.90;;;;;;6181694;23;20249;-79
2021/01/10 08:28:52;;;;;;;17.95;13.30;;;6.10;99.90;;;;;;6156667;23;21164;-78
2021/01/10 08:31:23;;;;;;;25.45;14.65;;;6.10;99.90;;;;;;6179880;23;20660;-79
2021/01/10 08:34:09;;;;;;;17.52;13.73;;;6.10;99.90;;;;;;6181625;23;20873;-79
2021/01/10 08:36:36;;;;;;;19.45;14.77;;;6.20;99.90;;;;;;6160160;23;20205;-79
2021/01/10 08:39:04;;;;;;;19.60;15.40;;;6.30;99.90;;;;;;6181554;23;20189;-79
2021/01/10 08:41:43;;;;;;;18.75;13.20;;;6.30;99.90;;;;;;6181901;23;20213;-79
2021/01/10 08:44:18;;;;;;;17.25;12.70;;;6.40;99.90;;;;;;6181615;23;20149;-79
2021/01/10 08:46:48;;;;;;;22.38;14.68;;;6.40;99.90;;;;;;6181754;23;20142;-79
2021/01/10 08:49:20;;;;;;;21.25;14.27;;;6.50;99.90;;;;;;6154162;23;20663;-78
2021/01/10 08:51:49;;;;;;;22.27;15.00;;;6.50;99.90;;;;;;6182668;23;20203;-79
2021/01/10 08:54:16;;;;;;;24.70;16.92;;;6.50;99.90;;;;;;6181965;23;20141;-79
2021/01/10 08:56:43;;;;;;;18.83;15.18;;;6.50;99.90;;;;;;6183326;23;20282;-80
2021/01/10 08:59:19;;;;;;;20.75;15.20;;;6.50;99.90;;;;;;6182847;23;20154;-80
2021/01/10 09:01:46;;;;;;;25.13;17.38;;;6.60;99.90;;;;;;6183507;23;20604;-79
2021/01/10 09:04:13;;;;;;;23.10;15.45;;;6.60;99.90;;;;;;6183620;23;20603;-78
2021/01/10 09:06:58;;;;;;;23.40;16.05;;;6.60;99.90;;;;;;6183399;23;20141;-79
2021/01/10 09:09:33;;;;;;;21.50;14.80;;;6.60;99.90;;;;;;6181111;23;20146;-79
2021/01/10 09:12:08;;;;;;;23.00;16.15;;;6.70;99.90;;;;;;6189089;23;20200;-79
2021/01/10 09:14:46;;;;;;;21.55;16.75;;;6.70;99.90;;;;;;6169199;23;20203;-78
2021/01/10 09:17:14;;;;;;;24.35;17.15;;;6.70;99.90;;;;;;6192102;23;20461;-77
2021/01/10 09:19:40;;;;;;;22.70;16.67;;;6.70;99.90;;;;;;6167619;23;20172;-77
2021/01/10 09:22:07;;;;;;;24.55;17.77;;;6.80;99.90;;;;;;6192374;23;20170;-78
2021/01/10 09:24:35;;;;;;;20.90;15.45;;;6.80;99.90;;;;;;6186420;23;20550;-78
2021/01/10 09:27:13;;;;;;;23.15;14.68;;;6.90;99.90;;;;;;6077574;23;20161;-76
2021/01/10 09:29:39;;;;;;;19.83;16.42;;;7.00;99.90;;;;;;6037920;23;20196;-79
2021/01/10 09:47:09;;;;;;;19.88;14.80;;;7.10;99.90;;;;;;6035507;23;20149;-78
2021/01/10 09:49:38;;;;;;;19.40;14.93;;;7.20;99.90;;;;;;6036180;23;20472;-78
2021/01/10 09:52:13;;;;;;;22.13;15.90;;;7.20;99.90;;;;;;6134755;23;20189;-80
2021/01/10 09:54:39;;;;;;;21.98;16.63;;;7.20;99.90;;;;;;6185814;23;20585;-79
2021/01/10 09:57:13;;;;;;;21.27;16.05;;;7.30;99.90;;;;;;6182495;23;20141;-80
2021/01/10 09:59:43;;;;;;;20.77;16.10;;;7.30;99.90;;;;;;6182507;23;20169;-79
2021/01/10 10:02:14;;;;;;;22.10;16.38;;;7.40;99.90;;;;;;6155101;23;20244;-79
2021/01/10 10:04:41;;;;;;;24.20;15.73;;;7.50;99.90;;;;;;6155532;23;20134;-79
2021/01/10 10:07:07;;;;;;;25.58;16.73;;;7.50;99.90;;;;;;6155670;23;20158;-79
2021/01/10 10:09:53;;;;;;;23.45;17.85;;;7.60;99.90;;;;;;6181300;23;20201;-79
2021/01/10 10:12:22;;;;;;;23.83;17.48;;;7.60;99.90;;;;;;6181969;23;20169;-79
2021/01/10 10:15:05;;;;;;;24.92;16.55;;;7.60;99.90;;;;;;6184561;23;20157;-77
2021/01/10 10:17:34;;;;;;;21.42;16.70;;;7.70;99.90;;;;;;6155257;23;20507;-78
2021/01/10 10:20:00;;;;;;;25.35;16.70;;;7.70;99.90;;;;;;6183150;23;20164;-77
2021/01/10 10:22:28;;;;;;;27.55;17.70;;;7.80;99.90;;;;;;6156552;23;20162;-79
2021/01/10 10:24:55;;;;;;;25.58;18.40;;;7.80;99.90;;;;;;6182819;23;20557;-79
2021/01/10 10:27:23;;;;;;;27.10;18.40;;;7.80;99.90;;;;;;6188383;23;20149;-78
2021/01/10 10:29:49;;;;;;;24.60;17.48;;;7.80;99.90;;;;;;6162179;23;20280;-80
2021/01/10 10:32:15;;;;;;;26.00;17.73;;;7.80;99.90;;;;;;6186703;23;20625;-79
2021/01/10 10:34:41;;;;;;;26.63;17.50;;;7.90;99.90;;;;;;6134606;23;20533;-80
2021/01/10 10:37:07;;;;;;;25.50;18.30;;;7.90;99.90;;;;;;6160544;23;20569;-78
2021/01/10 10:39:35;;;;;;;24.58;18.88;;;8.00;99.90;;;;;;6170683;23;20161;-78
2021/01/10 10:42:01;;;;;;;27.45;17.85;;;8.00;99.90;;;;;;6171184;23;20178;-79
2021/01/10 10:44:27;;;;;;;24.03;17.47;;;8.00;99.90;;;;;;6159789;23;20157;-78
2021/01/10 10:46:52;;;;;;;25.53;19.00;;;8.00;99.90;;;;;;6134272;23;20549;-78
2021/01/10 10:59:07;;;;;;;22.67;16.30;;;7.50;99.90;;;;;;6120997;23;20208;-75
2021/01/10 11:05:40;;;;;;;19.80;14.20;;;7.30;99.90;;;;;;6045535;23;20160;-75
2021/01/10 11:08:09;;;;;;;22.58;15.75;;;7.20;99.90;;;;;;6022457;23;20178;-74
2021/01/10 11:10:37;;;;;;;29.50;19.60;;;7.20;99.90;;;;;;6118929;23;21074;-75
2021/01/10 11:13:03;;;;;;;26.80;17.88;;;7.20;99.90;;;;;;6094301;23;20166;-74
2021/01/10 11:15:37;;;;;;;30.00;23.73;;;7.20;99.90;;;;;;6093196;23;20848;-75
2021/01/10 11:18:09;;;;;;;31.90;21.25;;;7.00;99.90;;;;;;6069935;23;20716;-75
2021/01/10 11:20:59;;;;;;;29.88;19.38;;;7.10;99.90;;;;;;6076390;23;20158;-75
2021/01/10 11:23:38;;;;;;;23.58;16.55;;;7.20;99.90;;;;;;6070350;23;20147;-75
2021/01/10 11:26:24;;;;;;;25.77;18.30;;;7.30;99.90;;;;;;6108186;23;20150;-74
2021/01/10 11:28:50;;;;;;;21.25;16.75;;;7.50;99.90;;;;;;6130039;23;20177;-75
2021/01/10 11:31:46;;;;;;;30.45;21.70;;;7.60;99.90;;;;;;6108101;23;21256;-75
2021/01/10 11:34:24;;;;;;;29.60;23.38;;;7.60;99.90;;;;;;6131697;23;20641;-75
2021/01/10 11:37:06;;;;;;;25.35;19.45;;;7.60;99.90;;;;;;6130881;23;20491;-75
2021/01/10 11:39:45;;;;;;;21.02;15.95;;;7.70;99.90;;;;;;6105556;23;20216;-75
2021/01/10 11:42:51;;;;;;;26.27;17.10;;;7.90;99.90;;;;;;6045697;23;20156;-74
2021/01/10 11:45:20;;;;;;;25.02;15.20;;;7.90;99.90;;;;;;6181056;23;20177;-75
2021/01/10 11:48:57;;;;;;;21.90;13.98;;;7.90;99.90;;;;;;6138759;23;20174;-76
2021/01/10 11:52:05;;;;;;;18.02;13.52;;;7.80;99.90;;;;;;6163071;23;20189;-75
2021/01/10 11:54:32;;;;;;;20.15;15.15;;;7.90;99.90;;;;;;5983166;23;20200;-76
2021/01/10 12:00:30;;;;;;;19.45;14.93;;;8.00;99.90;;;;;;6026989;23;20153;-76
2021/01/10 12:03:01;;;;;;;23.88;15.18;;;8.00;99.90;;;;;;6005225;23;20224;-76
2021/01/10 12:05:54;;;;;;;17.15;14.10;;;8.10;99.90;;;;;;5984175;23;20153;-76
2021/01/10 12:08:23;;;;;;;19.67;15.18;;;8.10;99.90;;;;;;6029187;23;20169;-76
2021/01/10 12:10:54;;;;;;;27.25;16.40;;;8.20;99.90;;;;;;6000141;23;20200;-75
2021/01/10 12:13:29;;;;;;;19.85;15.45;;;8.20;99.90;;;;;;5983082;23;20156;-74
2021/01/10 12:16:00;;;;;;;21.63;16.02;;;8.30;99.90;;;;;;6005586;23;20159;-74
2021/01/10 12:18:43;;;;;;;16.80;12.80;;;8.30;99.90;;;;;;6005520;23;20228;-74
2021/01/10 12:21:20;;;;;;;16.85;13.20;;;8.30;99.90;;;;;;5983033;23;20164;-75
2021/01/10 12:23:46;;;;;;;27.10;15.68;;;8.40;99.90;;;;;;5983545;23;20171;-75
2021/01/10 12:26:29;;;;;;;17.23;13.32;;;8.40;99.90;;;;;;6009938;23;20153;-83
2021/01/10 12:29:05;;;;;;;20.38;14.43;;;8.50;99.90;;;;;;6012134;23;20204;-84
2021/01/10 12:31:31;;;;;;;19.30;13.68;;;8.50;99.90;;;;;;6007803;23;20228;-83
2021/01/10 12:34:21;;;;;;;22.27;15.05;;;8.50;99.90;;;;;;6007683;23;20157;-82
2021/01/10 12:36:55;;;;;;;19.45;13.63;;;8.50;99.90;;;;;;6011474;23;20161;-84
2021/01/10 12:39:21;;;;;;;18.15;14.43;;;8.50;99.90;;;;;;5984079;23;20269;-85
2021/01/10 12:42:00;;;;;;;22.35;15.60;;;8.50;99.90;;;;;;6010523;23;20141;-84
2021/01/10 12:44:28;;;;;;;18.13;14.18;;;8.50;99.90;;;;;;6008695;23;20203;-85
2021/01/10 12:47:11;;;;;;;19.20;15.27;;;8.50;99.90;;;;;;6033383;23;20401;-85
2021/01/10 12:49:44;;;;;;;19.98;15.10;;;8.40;99.90;;;;;;5985532;23;20538;-84
2021/01/10 12:52:27;;;;;;;17.98;13.45;;;8.30;99.90;;;;;;6029217;23;20142;-85
2021/01/10 12:54:58;;;;;;;18.60;13.70;;;8.20;99.90;;;;;;6131510;23;20515;-86
2021/01/10 12:57:25;;;;;;;19.08;14.18;;;8.20;99.90;;;;;;6156431;23;20245;-84
2021/01/10 12:59:51;;;;;;;19.77;14.90;;;8.30;99.90;;;;;;6107365;23;20158;-84
2021/01/10 13:02:25;;;;;;;19.23;14.40;;;8.30;99.90;;;;;;6109282;23;20154;-84
2021/01/10 13:04:54;;;;;;;22.60;15.55;;;8.40;99.90;;;;;;6132978;23;20150;-84
2021/01/10 13:07:22;;;;;;;18.80;15.30;;;8.40;99.90;;;;;;6108207;23;20154;-84
2021/01/10 13:09:54;;;;;;;17.92;15.02;;;8.40;99.90;;;;;;6133289;23;20181;-86
2021/01/10 13:12:21;;;;;;;22.25;14.77;;;8.50;99.90;;;;;;6134339;23;20149;-84
2021/01/10 13:14:53;;;;;;;20.40;15.48;;;8.60;99.90;;;;;;6139532;23;20146;-85
2021/01/10 13:17:28;;;;;;;20.10;16.45;;;8.70;99.90;;;;;;6158788;23;20146;-84
2021/01/10 13:19:57;;;;;;;16.83;12.65;;;8.70;99.90;;;;;;6133016;23;20146;-83
2021/01/10 13:22:32;;;;;;;21.05;15.52;;;8.60;99.90;;;;;;6108394;23;20162;-85
2021/01/10 13:25:00;;;;;;;16.75;13.65;;;8.60;99.90;;;;;;6133803;23;20145;-84
2021/01/10 13:27:36;;;;;;;20.02;15.52;;;8.60;99.90;;;;;;6159764;23;20165;-85